createdAt,value
2023-03-07T00:04:15.273Z,99451.81
2023-03-07T00:09:17.001Z,99455.78
2023-03-07T00:14:19.202Z,99453.31
2023-03-07T00:19:20.723Z,99455.78
2023-03-07T00:24:22.421Z,99451.03
2023-03-07T00:29:23.978Z,99442.09
2023-03-07T00:34:25.549Z,99433.66
2023-03-07T00:39:27.110Z,99427.81
2023-03-07T00:44:28.824Z,99433.47
2023-03-07T00:49:30.373Z,99422.94
2023-03-07T00:54:31.902Z,99420.16
2023-03-07T00:59:33.760Z,99416.41
2023-03-07T01:04:35.354Z,99409.69
2023-03-07T01:09:36.933Z,99402.38
2023-03-07T01:14:38.476Z,99401.91
2023-03-07T01:19:40.068Z,99393.22
2023-03-07T01:24:41.935Z,99396.63
2023-03-07T01:29:43.784Z,99389.47
2023-03-07T01:34:45.446Z,99382.13
2023-03-07T01:39:50.338Z,99380.88
2023-03-07T01:45:15.252Z,99382.38
2023-03-07T01:50:19.956Z,99361.94
2023-03-07T01:55:26.773Z,99369.09
2023-03-07T02:00:32.373Z,99365.19
2023-03-07T02:05:50.515Z,99351.41
2023-03-07T02:10:52.339Z,99343.84
2023-03-07T02:15:54.273Z,99331.97
2023-03-07T02:21:16.316Z,99332.03
2023-03-07T02:26:29.335Z,99322.56
2023-03-07T02:31:30.929Z,99329.47
2023-03-07T02:36:34.966Z,99324.50
2023-03-07T02:42:02.441Z,99323.09
2023-03-07T02:47:13.897Z,99312.28
2023-03-07T02:52:15.520Z,99306.66
2023-03-07T02:57:17.271Z,99305.44
2023-03-07T03:02:18.971Z,99306.38
2023-03-07T03:07:21.128Z,99306.97
2023-03-07T03:12:22.637Z,99304.06
2023-03-07T03:17:24.952Z,99304.38
2023-03-07T03:22:26.552Z,99295.88
2023-03-07T03:27:32.735Z,99294.13
2023-03-07T03:32:34.412Z,99296.22
2023-03-07T03:37:36.479Z,99293.19
2023-03-07T03:42:43.930Z,99286.31
2023-03-07T03:47:46.694Z,99280.13
2023-03-07T03:52:48.348Z,99278.31
2023-03-07T03:57:49.975Z,99280.72
2023-03-07T04:02:51.673Z,99273.47
2023-03-07T04:07:54.164Z,99264.34
2023-03-07T04:12:55.804Z,99260.31
2023-03-07T04:17:57.457Z,99253.88
2023-03-07T04:22:59.569Z,99243.53
2023-03-07T04:28:01.247Z,99249.50
2023-03-07T04:33:03.153Z,99235.44
2023-03-07T04:38:04.963Z,99227.44
2023-03-07T04:43:07.180Z,99216.44
2023-03-07T04:48:09.256Z,99213.63
2023-03-07T04:53:11.857Z,99206.88
2023-03-07T04:58:15.791Z,99211.63
2023-03-07T05:03:17.482Z,99204.25
2023-03-07T05:08:20.511Z,99196.50
2023-03-07T05:13:22.230Z,99193.41
2023-03-07T05:18:24.624Z,99181.66
2023-03-07T05:23:27.180Z,99187.63
2023-03-07T05:28:30.034Z,99188.16
2023-03-07T05:33:31.703Z,99175.53
2023-03-07T05:38:33.463Z,99179.94
2023-03-07T05:43:35.521Z,99176.03
2023-03-07T05:48:37.127Z,99190.44
2023-03-07T05:53:38.779Z,99180.19
2023-03-07T05:58:40.820Z,99178.44
2023-03-07T06:03:42.503Z,99179.53
2023-03-07T06:08:44.118Z,99174.22
2023-03-07T06:13:46.728Z,99176.81
2023-03-07T06:18:48.626Z,99174.44
2023-03-07T06:23:50.251Z,99166.66
2023-03-07T06:28:55.214Z,99172.06
2023-03-07T06:33:59.516Z,99166.66
2023-03-07T06:39:01.959Z,99165.75
2023-03-07T06:44:03.552Z,99158.03
2023-03-07T06:49:07.355Z,99155.00
2023-03-07T06:54:09.866Z,99140.16
2023-03-07T06:59:11.742Z,99153.38
2023-03-07T07:04:13.504Z,99150.44
2023-03-07T07:09:17.186Z,99162.47
2023-03-07T07:14:18.967Z,99155.91
2023-03-07T07:19:21.066Z,99152.88
2023-03-07T07:24:23.000Z,99145.59
2023-03-07T07:29:26.850Z,99147.00
2023-03-07T07:34:29.430Z,99155.38
2023-03-07T07:39:31.989Z,99167.38
2023-03-07T07:44:33.985Z,99163.72
2023-03-07T07:49:40.718Z,99163.59
2023-03-07T07:54:42.502Z,99163.22
2023-03-07T07:59:44.235Z,99164.16
2023-03-07T08:04:46.210Z,99170.63
2023-03-07T08:09:47.920Z,99173.16
2023-03-07T08:14:49.659Z,99177.97
2023-03-07T08:19:51.183Z,99167.44
2023-03-07T08:24:52.747Z,99171.66
2023-03-07T08:29:54.420Z,99168.66
2023-03-07T08:34:56.139Z,99170.13
2023-03-07T08:39:57.665Z,99171.31
2023-03-07T08:44:59.243Z,99159.31
2023-03-07T08:50:01.547Z,99161.91
2023-03-07T08:55:03.341Z,99162.34
2023-03-07T09:00:05.785Z,99152.16
2023-03-07T09:05:07.659Z,99161.16
2023-03-07T09:10:09.910Z,99149.38
2023-03-07T09:15:11.546Z,99153.75
2023-03-07T09:20:13.413Z,99155.38
2023-03-07T09:25:15.047Z,99149.97
2023-03-07T09:30:16.831Z,99152.00
2023-03-07T09:35:18.545Z,99158.00
2023-03-07T09:40:23.209Z,99158.59
2023-03-07T09:45:55.921Z,99165.59
2023-03-07T09:51:19.053Z,99165.41
2023-03-07T09:56:29.779Z,99148.00
2023-03-07T10:01:33.347Z,99144.16
2023-03-07T10:06:40.987Z,99141.19
2023-03-07T10:12:05.034Z,99141.75
2023-03-07T10:17:37.168Z,99133.94
2023-03-07T10:22:48.465Z,99128.53
2023-03-07T10:27:54.683Z,99135.72
2023-03-07T10:32:57.257Z,99141.50
2023-03-07T10:38:05.970Z,99137.66
2023-03-07T10:43:28.242Z,99140.25
2023-03-07T10:48:31.006Z,99136.25
2023-03-07T10:53:36.508Z,99118.28
2023-03-07T10:58:38.240Z,99103.25
2023-03-07T11:03:58.686Z,99107.69
2023-03-07T11:09:15.219Z,99102.25
2023-03-07T11:14:18.787Z,99101.06
2023-03-07T11:19:36.835Z,99099.06
2023-03-07T11:24:40.027Z,99096.03
2023-03-07T11:29:41.648Z,99103.25
2023-03-07T11:34:53.291Z,99101.44
2023-03-07T11:40:16.470Z,99094.06
2023-03-07T11:45:50.537Z,99094.22
2023-03-07T11:50:56.706Z,99096.63
2023-03-07T11:56:22.954Z,99093.66
2023-03-07T12:01:33.561Z,99091.03
2023-03-07T12:06:55.523Z,99077.78
2023-03-07T12:12:10.348Z,99077.38
2023-03-07T12:17:40.670Z,99067.72
2023-03-07T12:23:00.924Z,99070.13
2023-03-07T12:28:31.943Z,99071.34
2023-03-07T12:34:12.111Z,99055.31
2023-03-07T12:39:23.330Z,99057.69
2023-03-07T12:44:31.046Z,99056.66
2023-03-07T12:49:53.989Z,99062.88
2023-03-07T12:55:04.360Z,99061.69
2023-03-07T13:00:10.725Z,99065.75
2023-03-07T13:05:21.171Z,99062.78
2023-03-07T13:10:24.534Z,99059.56
2023-03-07T13:15:26.064Z,99061.41
2023-03-07T13:20:27.583Z,99065.88
2023-03-07T13:25:29.189Z,99075.09
2023-03-07T13:30:32.581Z,99084.06
2023-03-07T13:35:37.002Z,99087.84
2023-03-07T13:40:41.488Z,99079.78
2023-03-07T13:45:42.960Z,99086.44
2023-03-07T13:50:50.660Z,99078.75
2023-03-07T13:55:56.674Z,99079.97
2023-03-07T14:01:11.825Z,99088.28
2023-03-07T14:06:50.593Z,99097.78
2023-03-07T14:12:02.953Z,99097.22
2023-03-07T14:17:26.021Z,99112.50
2023-03-07T14:22:36.325Z,99110.03
2023-03-07T14:27:51.468Z,99112.75
2023-03-07T14:32:53.384Z,99116.19
2023-03-07T14:37:55.048Z,99109.28
2023-03-07T14:43:18.017Z,99123.38
2023-03-07T14:48:38.505Z,99119.31
2023-03-07T14:53:40.372Z,99132.63
2023-03-07T14:58:55.709Z,99133.53
2023-03-07T15:03:57.485Z,99136.94
2023-03-07T15:08:59.369Z,99138.06
2023-03-07T15:14:18.274Z,99145.16
2023-03-07T15:19:25.738Z,99157.09
2023-03-07T15:24:37.352Z,99155.78
2023-03-07T15:29:45.463Z,99165.91
2023-03-07T15:34:59.968Z,99164.34
2023-03-07T15:40:07.544Z,99170.84
2023-03-07T15:45:34.697Z,99182.22
2023-03-07T15:50:36.981Z,99184.22
2023-03-07T15:55:39.327Z,99176.41
2023-03-07T16:00:41.953Z,99179.94
2023-03-07T16:05:43.711Z,99180.66
2023-03-07T16:11:07.040Z,99183.13
2023-03-07T16:16:25.374Z,99186.69
2023-03-07T16:21:27.254Z,99195.06
2023-03-07T16:26:28.870Z,99194.13
2023-03-07T16:31:30.449Z,99201.91
2023-03-07T16:36:32.031Z,99209.19
2023-03-07T16:41:36.944Z,99217.75
2023-03-07T16:46:38.884Z,99219.38
2023-03-07T16:51:40.450Z,99221.84
2023-03-07T16:56:45.051Z,99234.75
2023-03-07T17:01:49.758Z,99237.34
2023-03-07T17:07:03.853Z,99238.00
2023-03-07T17:12:06.181Z,99250.78
2023-03-07T17:17:07.818Z,99253.69
2023-03-07T17:22:09.790Z,99254.03
2023-03-07T17:27:11.536Z,99258.19
2023-03-07T17:32:13.442Z,99271.94
2023-03-07T17:37:15.113Z,99275.97
2023-03-07T17:42:16.817Z,99289.84
2023-03-07T17:47:18.332Z,99291.63
2023-03-07T17:52:20.017Z,99309.06
2023-03-07T17:57:21.547Z,99307.97
2023-03-07T18:02:23.192Z,99303.09
2023-03-07T18:07:24.824Z,99316.69
2023-03-07T18:12:26.329Z,99313.63
2023-03-07T18:17:33.302Z,99321.19
2023-03-07T18:22:40.706Z,99328.63
2023-03-07T18:27:42.343Z,99328.13
2023-03-07T18:32:44.598Z,99332.81
2023-03-07T18:37:46.219Z,99333.13
2023-03-07T18:42:47.790Z,99339.09
2023-03-07T18:47:49.289Z,99336.53
2023-03-07T18:52:51.940Z,99336.19
2023-03-07T18:57:53.625Z,99340.38
2023-03-07T19:02:55.152Z,99346.38
2023-03-07T19:07:56.667Z,99351.88
2023-03-07T19:12:58.278Z,99360.75
2023-03-07T19:17:59.926Z,99365.59
2023-03-07T19:23:01.446Z,99373.69
2023-03-07T19:28:03.238Z,99385.19
2023-03-07T19:33:05.190Z,99392.28
2023-03-07T19:38:06.725Z,99396.19
2023-03-07T19:43:08.286Z,99403.13
2023-03-07T19:48:09.897Z,99424.94
2023-03-07T19:53:11.635Z,99434.47
2023-03-07T19:58:13.457Z,99445.31
2023-03-07T20:03:19.593Z,99453.53
2023-03-07T20:08:21.335Z,99457.91
2023-03-07T20:13:22.907Z,99461.13
2023-03-07T20:18:24.496Z,99471.06
2023-03-07T20:23:26.033Z,99474.00
2023-03-07T20:28:27.517Z,99467.69
2023-03-07T20:33:29.024Z,99481.91
2023-03-07T20:38:32.313Z,99476.88
2023-03-07T20:43:34.353Z,99487.09
2023-03-07T20:48:36.566Z,99492.38
2023-03-07T20:53:38.387Z,99497.22
2023-03-07T20:58:40.131Z,99496.09
2023-03-07T21:03:41.750Z,99501.25
2023-03-07T21:08:43.424Z,99496.44
2023-03-07T21:13:47.294Z,99497.25
2023-03-07T21:18:49.894Z,99499.84
2023-03-07T21:23:52.366Z,99487.72
2023-03-07T21:28:54.131Z,99495.97
2023-03-07T21:34:08.542Z,99488.66
2023-03-07T21:39:10.526Z,99500.31
2023-03-07T21:44:12.460Z,99508.06
2023-03-07T21:49:14.692Z,99508.22
2023-03-07T21:54:16.338Z,99510.19
2023-03-07T21:59:18.078Z,99512.25
2023-03-07T22:04:19.877Z,99516.75
2023-03-07T22:09:21.442Z,99521.75
2023-03-07T22:14:23.253Z,99518.34
2023-03-07T22:19:25.693Z,99521.44
2023-03-07T22:24:27.690Z,99524.84
2023-03-07T22:29:29.581Z,99529.69
2023-03-07T22:34:31.258Z,99526.19
2023-03-07T22:39:33.192Z,99529.25
2023-03-07T22:44:35.478Z,99537.66
2023-03-07T22:49:37.005Z,99524.59
2023-03-07T22:54:38.810Z,99528.13
2023-03-07T22:59:41.375Z,99529.13
2023-03-07T23:04:43.484Z,99525.56
2023-03-07T23:09:45.446Z,99526.06
2023-03-07T23:14:47.578Z,99526.38
2023-03-07T23:19:51.638Z,99532.84
2023-03-07T23:24:53.302Z,99532.53
2023-03-07T23:29:55.458Z,99525.88
2023-03-07T23:34:57.397Z,99521.69
2023-03-07T23:39:59.211Z,99516.22
2023-03-07T23:45:01.015Z,99499.53
2023-03-07T23:50:03.444Z,99510.66
2023-03-07T23:55:06.662Z,99502.09
